Time;durP1;ratioP1;P1;durP2;ratioP2;P2;SDS_P1;SDS_P2;PMS_P1;PMS_P2;Temp;Humidity;BMP_temperature;BMP_pressure;BME280_temperature;BME280_humidity;BME280_pressure;Samples;Min_cycle;Max_cycle;Signal;HPM_P1;HPM_P2
2023/07/23 00:00:38;;;;;;;2.30;2.30;;;23.30;68.60;;;;;;5069688;28;43809;-77
2023/07/23 00:03:05;;;;;;;2.00;2.00;;;23.30;69.10;;;;;;5050843;28;44735;-78
2023/07/23 00:05:33;;;;;;;2.43;2.33;;;23.20;69.20;;;;;;5070233;28;43420;-77
2023/07/23 00:08:03;;;;;;;1.90;1.90;;;23.30;69.10;;;;;;5065594;28;43483;-78
2023/07/23 00:10:31;;;;;;;2.20;2.20;;;23.20;69.00;;;;;;5069662;28;43603;-78
2023/07/23 00:12:59;;;;;;;2.27;2.27;;;23.20;69.00;;;;;;5064868;28;43529;-77
2023/07/23 00:15:27;;;;;;;2.03;2.03;;;23.10;69.50;;;;;;5051249;28;43603;-77
2023/07/23 00:17:58;;;;;;;2.10;2.10;;;23.20;69.30;;;;;;5071883;28;43604;-78
2023/07/23 00:20:26;;;;;;;1.90;1.90;;;23.30;68.90;;;;;;5076119;28;43555;-79
2023/07/23 00:22:54;;;;;;;2.33;2.33;;;23.40;68.50;;;;;;5071107;28;43414;-77
2023/07/23 00:25:23;;;;;;;2.20;2.20;;;23.50;68.30;;;;;;5069191;28;43502;-78
2023/07/23 00:27:51;;;;;;;2.13;2.13;;;23.50;68.20;;;;;;5071307;28;43518;-77
2023/07/23 00:30:19;;;;;;;1.93;1.93;;;23.50;68.30;;;;;;5068857;28;44395;-78
2023/07/23 00:32:48;;;;;;;2.30;2.30;;;23.40;68.30;;;;;;5051862;28;45136;-77
2023/07/23 00:35:16;;;;;;;2.10;2.10;;;23.40;68.70;;;;;;5067586;28;43555;-77
2023/07/23 00:37:44;;;;;;;2.20;2.20;;;23.40;68.80;;;;;;5050537;28;43443;-78
2023/07/23 00:40:13;;;;;;;2.00;2.00;;;23.30;68.70;;;;;;5070617;28;44692;-78
2023/07/23 00:42:43;;;;;;;2.30;2.20;;;23.30;68.60;;;;;;5067627;28;43478;-78
2023/07/23 00:45:11;;;;;;;1.90;1.90;;;23.20;69.20;;;;;;5070634;28;43527;-78
2023/07/23 00:47:39;;;;;;;2.10;2.10;;;23.20;69.10;;;;;;5071060;28;43361;-77
2023/07/23 00:50:08;;;;;;;2.57;2.40;;;23.20;69.10;;;;;;5048779;28;45675;-78
2023/07/23 00:52:36;;;;;;;2.30;2.30;;;23.20;68.90;;;;;;5067868;28;43772;-78
2023/07/23 00:55:05;;;;;;;2.07;2.07;;;23.20;69.40;;;;;;5067244;28;43740;-78
2023/07/23 00:57:33;;;;;;;2.27;2.17;;;23.20;69.50;;;;;;5074735;28;43896;-78
2023/07/23 01:00:05;;;;;;;2.10;2.10;;;23.20;69.10;;;;;;5069837;28;45532;-78
2023/07/23 01:02:33;;;;;;;2.23;2.23;;;23.40;68.80;;;;;;5084317;22;43555;-72
2023/07/23 01:05:02;;;;;;;2.60;2.00;;;23.40;68.30;;;;;;5093966;27;43458;-71
2023/07/23 01:07:30;;;;;;;2.43;2.30;;;23.50;68.20;;;;;;5095679;27;43356;-71
2023/07/23 01:09:59;;;;;;;4.50;2.43;;;23.50;68.30;;;;;;5090328;27;46029;-71
2023/07/23 01:12:27;;;;;;;6.13;2.60;;;23.50;68.30;;;;;;5089411;27;44927;-70
2023/07/23 01:14:56;;;;;;;3.90;2.20;;;23.40;68.70;;;;;;5089486;27;43469;-72
2023/07/23 01:17:25;;;;;;;2.43;2.20;;;23.40;68.70;;;;;;5106225;27;43455;-71
2023/07/23 01:20:01;;;;;;;2.27;2.17;;;23.40;68.70;;;;;;5096748;27;43852;-71
2023/07/23 01:22:30;;;;;;;2.30;2.30;;;23.30;68.70;;;;;;5107952;27;45170;-71
2023/07/23 01:24:58;;;;;;;2.10;2.03;;;23.20;68.90;;;;;;5112224;27;43485;-71
2023/07/23 01:27:26;;;;;;;1.97;1.97;;;23.20;69.10;;;;;;5103259;27;43484;-70
2023/07/23 01:29:54;;;;;;;2.07;2.07;;;23.30;69.10;;;;;;5101404;27;45682;-71
2023/07/23 01:32:22;;;;;;;2.00;2.00;;;23.20;69.00;;;;;;5105221;27;43906;-71
2023/07/23 01:34:50;;;;;;;2.53;2.40;;;23.20;68.80;;;;;;5106772;27;43462;-71
2023/07/23 01:37:18;;;;;;;2.30;2.30;;;23.20;69.60;;;;;;5104726;27;43473;-70
2023/07/23 01:39:47;;;;;;;2.03;2.03;;;23.20;69.50;;;;;;5104812;27;43623;-70
2023/07/23 01:42:15;;;;;;;2.10;2.10;;;23.20;69.40;;;;;;5099844;27;44952;-70
2023/07/23 01:44:43;;;;;;;2.23;2.13;;;23.20;69.70;;;;;;5105472;27;43438;-70
2023/07/23 01:47:11;;;;;;;2.10;2.10;;;23.20;69.20;;;;;;5105470;27;43436;-70
2023/07/23 01:49:39;;;;;;;2.20;2.20;;;23.10;69.80;;;;;;5098129;27;43950;-70
2023/07/23 01:52:08;;;;;;;2.20;2.20;;;23.20;69.50;;;;;;5101102;27;45164;-71
2023/07/23 01:54:36;;;;;;;2.00;2.00;;;23.30;69.00;;;;;;5103394;27;43476;-71
2023/07/23 01:57:06;;;;;;;1.97;1.97;;;23.40;68.70;;;;;;5103298;27;43490;-71
2023/07/23 01:59:34;;;;;;;2.03;2.03;;;23.50;68.20;;;;;;5095179;27;45839;-71
2023/07/23 02:02:04;;;;;;;2.00;2.00;;;23.60;68.10;;;;;;5108802;27;44916;-70
2023/07/23 02:04:32;;;;;;;1.90;1.90;;;23.60;68.20;;;;;;5095131;27;44095;-70
2023/07/23 02:07:00;;;;;;;1.80;1.80;;;23.50;68.10;;;;;;5097545;27;43529;-70
2023/07/23 02:09:28;;;;;;;1.80;1.80;;;23.40;68.30;;;;;;5095169;27;45777;-71
2023/07/23 02:11:56;;;;;;;2.20;2.20;;;23.40;68.40;;;;;;5099024;27;43970;-71
2023/07/23 02:14:26;;;;;;;2.00;2.00;;;23.40;68.60;;;;;;5089174;27;43506;-71
2023/07/23 02:16:54;;;;;;;2.00;2.00;;;23.40;68.60;;;;;;5096947;27;43489;-70
2023/07/23 02:19:22;;;;;;;2.10;2.10;;;23.30;68.80;;;;;;5094251;27;46152;-72
2023/07/23 02:21:50;;;;;;;2.20;2.20;;;23.30;69.10;;;;;;5105203;27;43995;-71
2023/07/23 02:24:18;;;;;;;2.20;2.10;;;23.30;69.00;;;;;;5092825;27;43475;-70
2023/07/23 02:26:46;;;;;;;1.90;1.90;;;23.30;69.10;;;;;;5099454;27;43564;-70
2023/07/23 02:29:14;;;;;;;2.20;2.20;;;23.20;68.80;;;;;;5104207;27;43696;-70
2023/07/23 02:31:43;;;;;;;2.10;2.00;;;23.20;69.50;;;;;;5093843;27;43470;-71
2023/07/23 02:34:11;;;;;;;2.20;2.20;;;23.20;69.30;;;;;;5091729;27;43734;-70
2023/07/23 02:36:39;;;;;;;2.00;2.00;;;23.30;68.90;;;;;;5092889;27;43427;-70
2023/07/23 02:39:07;;;;;;;2.17;2.17;;;23.40;68.60;;;;;;5091646;27;45376;-71
2023/07/23 02:41:35;;;;;;;2.27;2.27;;;23.50;68.50;;;;;;5092110;27;43462;-70
2023/07/23 02:44:04;;;;;;;2.10;2.10;;;23.50;68.50;;;;;;5094656;27;43990;-70
2023/07/23 02:46:31;;;;;;;2.00;2.00;;;23.40;68.40;;;;;;5093014;27;43372;-71
2023/07/23 02:49:02;;;;;;;2.00;2.00;;;23.40;68.70;;;;;;5088504;27;45729;-71
2023/07/23 02:51:30;;;;;;;1.90;1.90;;;23.30;68.90;;;;;;5097006;27;43682;-71
2023/07/23 02:53:58;;;;;;;2.07;2.07;;;23.30;68.80;;;;;;5092721;27;43346;-70
2023/07/23 02:56:26;;;;;;;2.07;2.07;;;23.30;68.90;;;;;;5091048;27;43448;-71
2023/07/23 02:58:54;;;;;;;1.93;1.93;;;23.30;68.80;;;;;;5098166;27;45856;-70
2023/07/23 03:01:22;;;;;;;2.10;2.10;;;23.20;69.30;;;;;;5095227;27;45129;-70
2023/07/23 03:03:50;;;;;;;2.13;2.13;;;23.20;69.30;;;;;;5097476;27;43911;-71
2023/07/23 03:06:20;;;;;;;2.30;2.20;;;23.20;69.30;;;;;;5092084;27;43482;-70
2023/07/23 03:08:48;;;;;;;2.90;2.80;;;23.20;69.00;;;;;;5095934;27;44036;-70
2023/07/23 03:11:16;;;;;;;2.80;2.60;;;23.20;69.50;;;;;;5092484;27;43542;-70
2023/07/23 03:13:44;;;;;;;3.50;3.00;;;23.20;69.60;;;;;;5087540;27;43470;-70
2023/07/23 03:16:12;;;;;;;6.63;3.50;;;23.20;69.20;;;;;;5092433;27;43805;-71
2023/07/23 03:18:40;;;;;;;4.93;3.70;;;23.30;68.80;;;;;;5087022;27;45946;-71
2023/07/23 03:21:08;;;;;;;8.57;4.70;;;23.40;68.50;;;;;;5088173;27;44693;-71
2023/07/23 03:23:38;;;;;;;11.97;5.03;;;23.50;68.30;;;;;;5092817;27;43488;-76
2023/07/23 03:26:06;;;;;;;10.67;4.77;;;23.50;68.40;;;;;;5092713;27;43526;-71
2023/07/23 03:28:34;;;;;;;9.43;5.50;;;23.50;68.40;;;;;;5092154;27;43760;-71
2023/07/23 03:31:03;;;;;;;11.80;6.33;;;23.40;68.70;;;;;;5087920;27;45028;-71
2023/07/23 03:33:31;;;;;;;13.63;6.33;;;23.40;68.90;;;;;;5097533;27;43493;-70
2023/07/23 03:36:02;;;;;;;12.20;5.73;;;23.30;68.70;;;;;;5090404;27;43457;-71
2023/07/23 03:38:31;;;;;;;16.17;7.00;;;23.30;68.70;;;;;;5090017;27;43600;-70
2023/07/23 03:41:00;;;;;;;17.67;7.43;;;23.30;68.40;;;;;;5088045;27;44389;-71
2023/07/23 03:43:29;;;;;;;17.07;7.37;;;23.20;69.10;;;;;;5090091;27;44224;-71
2023/07/23 03:45:57;;;;;;;16.97;7.33;;;23.20;69.10;;;;;;5092295;27;43555;-71
2023/07/23 03:48:25;;;;;;;17.43;7.57;;;23.20;69.10;;;;;;5097258;27;44100;-72
2023/07/23 03:50:53;;;;;;;18.60;7.87;;;23.20;68.70;;;;;;5088650;27;44749;-71
2023/07/23 03:53:21;;;;;;;22.23;7.93;;;23.20;69.40;;;;;;5088008;27;43450;-71
2023/07/23 03:55:48;;;;;;;20.83;8.87;;;23.20;69.30;;;;;;5089692;27;43468;-71
2023/07/23 03:58:18;;;;;;;18.53;8.30;;;23.30;68.80;;;;;;5090129;27;46860;-71
2023/07/23 04:00:46;;;;;;;19.80;8.67;;;23.40;68.30;;;;;;5094512;27;44765;-71
2023/07/23 04:03:14;;;;;;;20.40;9.27;;;23.50;68.10;;;;;;5109677;27;43457;-71
2023/07/23 04:05:42;;;;;;;19.90;8.53;;;23.50;68.00;;;;;;5099840;27;43600;-71
2023/07/23 04:08:12;;;;;;;16.87;7.93;;;23.50;68.00;;;;;;5094767;27;45279;-71
2023/07/23 04:10:40;;;;;;;18.00;8.50;;;23.50;68.70;;;;;;5100264;27;45205;-71
2023/07/23 04:13:09;;;;;;;21.63;9.57;;;23.40;68.30;;;;;;5114485;27;43448;-70
2023/07/23 04:15:38;;;;;;;18.00;8.70;;;23.40;68.50;;;;;;5092962;27;44109;-70
2023/07/23 04:18:12;;;;;;;20.77;9.00;;;23.40;68.60;;;;;;5110481;27;43955;-71
2023/07/23 04:20:40;;;;;;;21.00;9.17;;;23.30;68.20;;;;;;5094211;27;44777;-70
2023/07/23 04:23:08;;;;;;;17.90;9.10;;;23.30;69.50;;;;;;5096101;27;43435;-71
2023/07/23 04:25:37;;;;;;;19.50;9.00;;;23.30;69.00;;;;;;5110978;27;43382;-70
2023/07/23 04:28:05;;;;;;;21.20;9.23;;;23.30;68.90;;;;;;5097829;27;45586;-70
2023/07/23 04:30:33;;;;;;;18.30;8.43;;;23.20;68.50;;;;;;5108866;27;43444;-71
2023/07/23 04:33:05;;;;;;;18.63;8.60;;;23.20;68.30;;;;;;5117308;27;43519;-71
2023/07/23 04:35:36;;;;;;;21.03;9.27;;;23.20;69.20;;;;;;5091933;27;43618;-71
2023/07/23 04:38:03;;;;;;;18.30;9.37;;;23.20;69.10;;;;;;5112792;27;43921;-70
2023/07/23 04:40:34;;;;;;;17.30;8.57;;;23.20;69.00;;;;;;5112053;27;43406;-71
2023/07/23 04:43:03;;;;;;;19.80;9.07;;;23.20;68.30;;;;;;5098742;27;43411;-71
2023/07/23 04:45:31;;;;;;;21.87;9.53;;;23.20;69.30;;;;;;5094798;27;43534;-71
2023/07/23 04:47:59;;;;;;;21.17;9.33;;;23.20;69.00;;;;;;5109480;27;43700;-71
2023/07/23 04:50:29;;;;;;;16.43;8.67;;;23.30;68.60;;;;;;5113356;27;43465;-70
2023/07/23 04:52:57;;;;;;;13.93;8.53;;;23.40;68.10;;;;;;5109601;27;43434;-71
2023/07/23 04:55:26;;;;;;;18.03;8.37;;;23.50;67.70;;;;;;5116703;27;43953;-71
2023/07/23 04:57:54;;;;;;;19.03;9.37;;;23.50;67.60;;;;;;5110283;27;43606;-71
2023/07/23 05:00:22;;;;;;;16.60;8.70;;;23.50;67.50;;;;;;5091141;27;44977;-71
2023/07/23 05:02:50;;;;;;;17.13;8.70;;;23.50;67.60;;;;;;5114161;27;43557;-71
2023/07/23 05:05:18;;;;;;;16.17;8.30;;;23.50;67.90;;;;;;5113604;27;43862;-71
2023/07/23 05:07:47;;;;;;;17.17;8.53;;;23.40;67.90;;;;;;5111720;27;43618;-71
2023/07/23 05:10:15;;;;;;;15.50;8.53;;;23.40;68.00;;;;;;5116020;27;43440;-71
2023/07/23 05:12:43;;;;;;;17.03;8.37;;;23.40;67.80;;;;;;5107534;27;43388;-71
2023/07/23 05:15:12;;;;;;;15.43;8.47;;;23.30;68.10;;;;;;5113511;27;43512;-71
2023/07/23 05:17:41;;;;;;;16.33;8.20;;;23.30;68.50;;;;;;5112268;27;43619;-71
2023/07/23 05:20:09;;;;;;;15.50;8.23;;;23.30;69.30;;;;;;5118249;27;43492;-71
2023/07/23 05:22:38;;;;;;;13.43;8.27;;;23.30;68.40;;;;;;5110087;27;43374;-71
2023/07/23 05:25:08;;;;;;;19.47;8.80;;;23.20;67.80;;;;;;5117570;27;43377;-71
2023/07/23 05:27:39;;;;;;;16.33;8.17;;;23.20;68.80;;;;;;5113831;27;43527;-71
2023/07/23 05:30:08;;;;;;;13.90;7.93;;;23.20;68.90;;;;;;5112600;27;43467;-71
2023/07/23 05:32:35;;;;;;;16.93;8.73;;;23.20;68.90;;;;;;5109892;27;43476;-71
2023/07/23 05:35:04;;;;;;;15.43;8.47;;;23.20;68.20;;;;;;5090973;27;43577;-71
2023/07/23 05:37:32;;;;;;;15.73;8.77;;;23.20;68.60;;;;;;5090633;27;45630;-75
2023/07/23 05:40:00;;;;;;;16.50;8.93;;;23.10;68.90;;;;;;5107432;27;43502;-71
2023/07/23 05:42:29;;;;;;;14.60;8.47;;;23.20;68.60;;;;;;5095113;27;43447;-71
2023/07/23 05:44:58;;;;;;;13.67;7.70;;;23.30;68.20;;;;;;5114037;27;43508;-70
2023/07/23 05:47:26;;;;;;;12.73;7.40;;;23.40;67.70;;;;;;5109634;27;43598;-70
2023/07/23 05:49:54;;;;;;;12.83;7.63;;;23.50;67.60;;;;;;5113372;27;43489;-71
2023/07/23 05:52:22;;;;;;;12.33;7.43;;;23.50;67.40;;;;;;5082878;27;43457;-71
2023/07/23 05:54:50;;;;;;;11.60;7.50;;;23.50;67.50;;;;;;5114307;27;43456;-71
2023/07/23 05:57:20;;;;;;;13.03;7.50;;;23.40;67.60;;;;;;5112998;27;43842;-71
2023/07/23 05:59:50;;;;;;;12.97;7.70;;;23.40;67.80;;;;;;5110143;27;43526;-71
2023/07/23 06:02:18;;;;;;;13.40;8.20;;;23.30;67.80;;;;;;5092237;27;43785;-70
2023/07/23 06:04:46;;;;;;;11.50;7.50;;;23.30;67.80;;;;;;5112441;27;43977;-71
2023/07/23 06:07:13;;;;;;;13.50;7.80;;;23.30;67.50;;;;;;5109869;27;43698;-70
2023/07/23 06:09:41;;;;;;;12.93;8.00;;;23.30;69.10;;;;;;5113209;27;43436;-72
2023/07/23 06:12:09;;;;;;;9.70;6.60;;;23.20;68.40;;;;;;5117872;27;43401;-70
2023/07/23 06:14:37;;;;;;;12.90;7.50;;;23.20;68.30;;;;;;5115234;27;43409;-71
2023/07/23 06:17:07;;;;;;;10.87;6.97;;;23.20;67.90;;;;;;5117513;27;43861;-71
2023/07/23 06:19:35;;;;;;;12.23;7.10;;;23.20;68.60;;;;;;5094872;27;46444;-71
2023/07/23 06:22:04;;;;;;;11.63;7.30;;;23.20;68.40;;;;;;5116616;27;43489;-71
2023/07/23 06:24:32;;;;;;;10.93;7.17;;;23.20;68.00;;;;;;5114364;27;43977;-70
2023/07/23 06:27:00;;;;;;;10.90;7.43;;;23.40;67.70;;;;;;5113576;27;43864;-70
2023/07/23 06:29:28;;;;;;;12.20;7.50;;;23.50;67.40;;;;;;5118741;27;43393;-70
2023/07/23 06:31:57;;;;;;;9.80;6.70;;;23.50;67.30;;;;;;5113884;27;43443;-70
2023/07/23 06:34:26;;;;;;;10.13;7.03;;;23.50;67.30;;;;;;5112036;27;43418;-70
2023/07/23 06:36:54;;;;;;;9.73;6.73;;;23.40;67.00;;;;;;5118198;27;43856;-71
2023/07/23 06:39:22;;;;;;;9.83;6.53;;;23.40;67.70;;;;;;5114583;27;43530;-76
2023/07/23 06:41:50;;;;;;;9.33;6.63;;;23.40;67.70;;;;;;5098539;27;43422;-70
2023/07/23 06:44:19;;;;;;;8.27;6.37;;;23.30;67.70;;;;;;5099478;27;43605;-71
2023/07/23 06:46:47;;;;;;;9.53;6.77;;;23.30;68.20;;;;;;5114317;27;44124;-70
2023/07/23 06:49:15;;;;;;;11.17;7.10;;;23.20;68.00;;;;;;5121687;27;43480;-71
2023/07/23 06:51:44;;;;;;;10.17;7.00;;;23.20;68.00;;;;;;5113491;27;44054;-71
2023/07/23 06:54:12;;;;;;;10.63;6.60;;;23.20;68.20;;;;;;5112591;27;44451;-70
2023/07/23 06:56:40;;;;;;;9.20;6.43;;;23.20;67.70;;;;;;5095568;27;45604;-71
2023/07/23 06:59:08;;;;;;;9.97;7.00;;;23.20;67.50;;;;;;5118047;27;43454;-70
2023/07/23 07:01:36;;;;;;;9.07;6.50;;;23.20;68.50;;;;;;5114153;27;43870;-72
2023/07/23 07:04:05;;;;;;;9.00;6.60;;;23.20;68.30;;;;;;5114002;27;43324;-71
2023/07/23 07:06:35;;;;;;;9.03;6.77;;;23.30;67.90;;;;;;5089954;27;45740;-70
2023/07/23 07:09:04;;;;;;;8.50;6.40;;;23.40;67.60;;;;;;5093630;27;45176;-71
2023/07/23 07:11:32;;;;;;;9.57;6.67;;;23.50;67.40;;;;;;5110752;27;43397;-72
2023/07/23 07:14:00;;;;;;;9.67;6.87;;;23.50;67.10;;;;;;5111227;27;43463;-71
2023/07/23 07:16:28;;;;;;;7.03;5.87;;;23.50;67.20;;;;;;5110337;27;43608;-70
2023/07/23 07:18:56;;;;;;;7.93;5.80;;;23.40;67.00;;;;;;5109361;27;43494;-70
2023/07/23 07:21:24;;;;;;;8.53;5.90;;;23.40;67.70;;;;;;5108643;27;43481;-70
2023/07/23 07:23:55;;;;;;;8.77;6.43;;;23.30;67.70;;;;;;5109891;27;43423;-71
2023/07/23 07:26:24;;;;;;;7.43;5.80;;;23.30;67.80;;;;;;5110574;27;43655;-71
2023/07/23 07:28:52;;;;;;;6.77;5.80;;;23.30;67.50;;;;;;5105465;27;43387;-71
2023/07/23 07:31:20;;;;;;;6.20;5.60;;;23.20;68.10;;;;;;5105928;27;43448;-70
2023/07/23 07:33:48;;;;;;;6.57;5.70;;;23.20;68.30;;;;;;5110581;27;43967;-71
2023/07/23 07:36:21;;;;;;;7.97;6.17;;;23.30;68.10;;;;;;5103454;27;43681;-71
2023/07/23 07:38:49;;;;;;;7.63;5.93;;;23.40;67.80;;;;;;5108732;27;43566;-71
2023/07/23 07:41:16;;;;;;;7.40;5.80;;;23.40;67.60;;;;;;5093566;27;44616;-70
2023/07/23 07:43:46;;;;;;;7.17;5.77;;;23.40;67.50;;;;;;5112143;27;43962;-74
2023/07/23 07:46:15;;;;;;;7.50;5.57;;;23.40;67.40;;;;;;5113545;27;43602;-70
2023/07/23 07:48:43;;;;;;;8.20;5.90;;;23.40;67.20;;;;;;5111651;27;43898;-71
2023/07/23 07:51:11;;;;;;;6.20;5.50;;;23.30;67.90;;;;;;5112943;27;43379;-70
2023/07/23 07:53:39;;;;;;;6.97;5.50;;;23.30;67.90;;;;;;5094821;27;44052;-70
2023/07/23 07:56:13;;;;;;;7.53;5.40;;;23.30;67.90;;;;;;5112236;27;43958;-70
2023/07/23 07:58:42;;;;;;;6.63;5.50;;;23.20;67.40;;;;;;5111088;27;43581;-70
2023/07/23 08:01:12;;;;;;;5.70;5.10;;;23.20;68.30;;;;;;5096552;27;43505;-70
2023/07/23 08:03:40;;;;;;;6.20;5.57;;;23.20;68.40;;;;;;5093457;27;43712;-70
2023/07/23 08:06:09;;;;;;;6.83;5.47;;;23.20;68.30;;;;;;5095972;27;45505;-70
2023/07/23 08:08:37;;;;;;;5.73;5.00;;;23.10;67.70;;;;;;5118031;27;43418;-70
2023/07/23 08:11:07;;;;;;;5.27;4.87;;;23.10;67.60;;;;;;5114510;27;44321;-70
2023/07/23 08:13:36;;;;;;;6.40;5.10;;;23.10;68.60;;;;;;5108453;27;43393;-69
2023/07/23 08:16:04;;;;;;;7.20;5.30;;;23.20;68.30;;;;;;5109801;27;43586;-70
2023/07/23 08:18:34;;;;;;;6.37;5.27;;;23.30;67.70;;;;;;5110959;27;43838;-70
2023/07/23 08:21:02;;;;;;;5.60;4.93;;;23.40;67.40;;;;;;5109947;27;43415;-70
2023/07/23 08:23:31;;;;;;;4.93;4.53;;;23.50;67.40;;;;;;5115246;27;43430;-72
2023/07/23 08:25:59;;;;;;;5.10;4.70;;;23.50;67.20;;;;;;5110140;27;43579;-70
2023/07/23 08:28:29;;;;;;;4.60;4.30;;;23.40;67.20;;;;;;5107195;27;43351;-70
2023/07/23 08:31:00;;;;;;;5.23;4.73;;;23.40;67.10;;;;;;5112492;27;43438;-70
2023/07/23 08:33:29;;;;;;;4.87;4.47;;;23.30;67.80;;;;;;5112036;27;43497;-70
2023/07/23 08:36:00;;;;;;;5.90;5.27;;;23.30;67.80;;;;;;5113675;27;43675;-70
2023/07/23 08:38:28;;;;;;;4.70;4.37;;;23.30;68.50;;;;;;5114638;27;43453;-70
2023/07/23 08:40:58;;;;;;;5.00;4.60;;;23.20;67.30;;;;;;5113539;27;43408;-70
2023/07/23 08:43:45;;;;;;;6.10;4.87;;;23.20;68.30;;;;;;5110648;27;43394;-71
2023/07/23 08:46:23;;;;;;;4.80;4.40;;;23.20;68.30;;;;;;5109841;27;44009;-70
2023/07/23 08:49:08;;;;;;;5.20;4.70;;;23.20;68.10;;;;;;5110771;27;43427;-69
2023/07/23 08:51:43;;;;;;;4.83;4.43;;;23.10;67.60;;;;;;5114500;27;43890;-70
2023/07/23 08:54:11;;;;;;;5.90;4.50;;;23.10;68.50;;;;;;5107666;27;43503;-71
2023/07/23 08:56:40;;;;;;;4.87;4.33;;;23.10;68.60;;;;;;5102913;27;43904;-70
2023/07/23 08:59:11;;;;;;;4.40;4.10;;;23.10;68.40;;;;;;5090961;27;45003;-70
2023/07/23 09:01:40;;;;;;;5.00;4.50;;;23.10;67.90;;;;;;5110903;27;43445;-70
2023/07/23 09:04:10;;;;;;;4.10;3.90;;;23.10;68.30;;;;;;5112751;27;43442;-70
2023/07/23 09:06:38;;;;;;;4.33;4.03;;;23.10;68.80;;;;;;5120508;27;43944;-70
2023/07/23 09:09:08;;;;;;;4.57;4.17;;;23.20;68.60;;;;;;5091005;27;44951;-71
2023/07/23 09:11:37;;;;;;;4.40;4.17;;;23.30;68.20;;;;;;5091483;27;43429;-70
2023/07/23 09:14:08;;;;;;;4.07;3.83;;;23.40;67.70;;;;;;5111299;27;43424;-70
2023/07/23 09:16:37;;;;;;;3.87;3.67;;;23.40;67.40;;;;;;5108247;27;43919;-70
2023/07/23 09:19:05;;;;;;;4.13;3.87;;;23.40;67.30;;;;;;5108268;27;43477;-70
2023/07/23 09:21:35;;;;;;;3.80;3.43;;;23.40;67.30;;;;;;5108011;27;43538;-75
2023/07/23 09:24:06;;;;;;;4.37;4.03;;;23.40;67.40;;;;;;5113810;27;44033;-70
2023/07/23 09:26:37;;;;;;;4.20;3.90;;;23.30;67.60;;;;;;5111266;27;43601;-70
2023/07/23 09:29:08;;;;;;;3.40;3.20;;;23.30;67.70;;;;;;5111836;27;43506;-71
2023/07/23 09:31:36;;;;;;;3.80;3.60;;;23.30;67.50;;;;;;5116246;27;43471;-70
2023/07/23 09:34:04;;;;;;;3.67;3.47;;;23.20;67.20;;;;;;5097890;27;43467;-70
2023/07/23 09:36:32;;;;;;;3.60;3.40;;;23.20;68.30;;;;;;5109354;27;43611;-70
2023/07/23 09:39:01;;;;;;;4.00;3.70;;;23.20;68.10;;;;;;5108448;27;43437;-70
2023/07/23 09:41:31;;;;;;;3.50;3.27;;;23.20;67.90;;;;;;5117907;27;43525;-70
2023/07/23 09:44:05;;;;;;;3.70;3.50;;;23.30;67.80;;;;;;5116559;27;43414;-70
2023/07/23 09:46:33;;;;;;;3.50;3.30;;;23.30;67.60;;;;;;5116392;27;45098;-70
2023/07/23 09:49:01;;;;;;;4.20;3.80;;;23.30;67.70;;;;;;5096712;27;44907;-70
2023/07/23 09:51:30;;;;;;;3.87;3.57;;;23.20;67.80;;;;;;5115033;27;43440;-70
2023/07/23 09:54:00;;;;;;;3.80;3.50;;;23.20;67.80;;;;;;5123164;27;43391;-70
2023/07/23 09:56:28;;;;;;;4.23;3.20;;;23.20;67.50;;;;;;5119621;27;43871;-70
2023/07/23 09:58:57;;;;;;;3.50;3.30;;;23.20;67.20;;;;;;5109537;27;43398;-70
2023/07/23 10:01:27;;;;;;;3.00;2.80;;;23.20;68.20;;;;;;5115531;27;43410;-70
2023/07/23 10:03:56;;;;;;;2.93;2.83;;;23.20;68.20;;;;;;5115216;27;44414;-70
2023/07/23 10:06:24;;;;;;;3.23;3.13;;;23.20;68.00;;;;;;5112516;27;43959;-70
2023/07/23 10:08:52;;;;;;;2.93;2.83;;;23.10;67.40;;;;;;5112117;27;43376;-72
2023/07/23 10:11:20;;;;;;;3.07;2.97;;;23.10;67.40;;;;;;5096660;27;43459;-70
2023/07/23 10:13:48;;;;;;;3.00;2.80;;;23.10;68.40;;;;;;5118272;27;43450;-70
2023/07/23 10:16:19;;;;;;;3.00;2.90;;;23.10;68.30;;;;;;5114736;27;45006;-70
2023/07/23 10:18:49;;;;;;;2.97;2.87;;;23.10;67.80;;;;;;5114184;27;43470;-71
2023/07/23 10:21:18;;;;;;;3.30;3.10;;;23.10;67.40;;;;;;5114346;27;43514;-71
2023/07/23 10:23:54;;;;;;;3.03;2.93;;;23.10;68.00;;;;;;5097029;27;43422;-71
2023/07/23 10:26:24;;;;;;;2.80;2.70;;;23.00;68.30;;;;;;5107214;27;43599;-71
2023/07/23 10:28:56;;;;;;;2.70;2.60;;;23.10;68.00;;;;;;5117481;27;44437;-71
2023/07/23 10:31:25;;;;;;;3.00;2.90;;;23.20;67.60;;;;;;5116123;27;43444;-71
2023/07/23 10:33:55;;;;;;;3.23;3.03;;;23.40;67.30;;;;;;5098864;27;43519;-71
2023/07/23 10:36:23;;;;;;;2.73;2.63;;;23.40;67.00;;;;;;5120021;27;43627;-71
2023/07/23 10:39:05;;;;;;;2.77;2.67;;;23.50;66.90;;;;;;5097426;27;44381;-75
2023/07/23 10:41:50;;;;;;;3.27;2.97;;;23.40;66.70;;;;;;5112882;27;43454;-70
2023/07/23 10:44:23;;;;;;;2.43;2.33;;;23.40;67.20;;;;;;5114300;27;43551;-71
2023/07/23 10:46:51;;;;;;;2.63;2.23;;;23.30;67.20;;;;;;5115524;27;43579;-70
2023/07/23 10:49:28;;;;;;;2.87;2.67;;;23.30;67.20;;;;;;5115703;27;43329;-70
2023/07/23 10:52:12;;;;;;;2.77;2.67;;;23.30;66.90;;;;;;5096810;27;43433;-70
2023/07/23 10:54:40;;;;;;;2.83;2.63;;;23.20;67.30;;;;;;5110727;27;43414;-71
2023/07/23 10:57:08;;;;;;;2.73;2.60;;;23.20;67.60;;;;;;5094111;27;46129;-72
2023/07/23 10:59:38;;;;;;;2.80;2.70;;;23.20;67.60;;;;;;5114320;27;43459;-72
2023/07/23 11:02:06;;;;;;;2.20;2.20;;;23.20;67.10;;;;;;5116997;27;43477;-71
2023/07/23 11:04:37;;;;;;;2.50;2.40;;;23.20;67.00;;;;;;5113916;27;43411;-71
2023/07/23 11:07:06;;;;;;;2.63;2.53;;;23.20;68.00;;;;;;5095098;27;45711;-73
2023/07/23 11:09:35;;;;;;;2.60;2.50;;;23.20;67.90;;;;;;5114036;27;44011;-72
2023/07/23 11:12:05;;;;;;;3.53;2.30;;;23.30;67.50;;;;;;5095324;27;43452;-71
2023/07/23 11:14:34;;;;;;;2.43;2.33;;;23.40;67.00;;;;;;5115070;27;43503;-71
2023/07/23 11:17:03;;;;;;;2.43;2.33;;;23.40;66.90;;;;;;5113374;27;43898;-71
2023/07/23 11:19:32;;;;;;;2.90;2.80;;;23.40;66.80;;;;;;5114018;27;44538;-71
2023/07/23 11:22:02;;;;;;;2.37;2.27;;;23.40;66.60;;;;;;5114493;27;43429;-71
2023/07/23 11:24:30;;;;;;;2.47;2.37;;;23.40;66.80;;;;;;5108812;27;43402;-71
2023/07/23 11:26:59;;;;;;;2.47;2.37;;;23.30;67.30;;;;;;5114708;27;44175;-71
2023/07/23 11:29:27;;;;;;;2.23;2.23;;;23.30;67.40;;;;;;5097583;27;44962;-71
2023/07/23 11:32:01;;;;;;;2.30;2.20;;;23.30;67.00;;;;;;5110538;27;43474;-70
2023/07/23 11:34:29;;;;;;;2.33;2.23;;;23.20;66.70;;;;;;5094383;27;43668;-70
2023/07/23 11:36:57;;;;;;;6.67;2.40;;;23.20;67.70;;;;;;5117723;27;43704;-71
2023/07/23 11:39:26;;;;;;;2.77;2.60;;;23.20;67.40;;;;;;5093542;27;44999;-70
2023/07/23 11:41:54;;;;;;;1.97;1.97;;;23.20;67.20;;;;;;5114736;27;43415;-71
2023/07/23 11:44:22;;;;;;;3.23;2.40;;;23.30;67.20;;;;;;5116845;27;43962;-71
2023/07/23 11:46:50;;;;;;;2.40;2.20;;;23.20;66.90;;;;;;5091142;27;46015;-70
2023/07/23 11:49:19;;;;;;;3.13;2.60;;;23.20;67.20;;;;;;5111200;27;43841;-71
2023/07/23 11:51:47;;;;;;;2.33;2.23;;;23.20;67.00;;;;;;5111215;27;43344;-72
2023/07/23 11:54:15;;;;;;;2.33;2.23;;;23.20;66.80;;;;;;5105724;27;44080;-71
2023/07/23 11:56:45;;;;;;;2.53;2.33;;;23.20;67.00;;;;;;5109628;27;44161;-71
2023/07/23 11:59:16;;;;;;;3.93;2.30;;;23.20;67.10;;;;;;5111541;27;43550;-71
2023/07/23 12:01:46;;;;;;;2.43;2.30;;;23.10;66.80;;;;;;5102305;27;43865;-71
2023/07/23 12:04:16;;;;;;;2.53;2.33;;;23.20;66.40;;;;;;5110250;27;43442;-71
2023/07/23 12:06:44;;;;;;;2.37;2.20;;;23.20;65.80;;;;;;5114397;27;43834;-71
2023/07/23 12:09:12;;;;;;;2.23;2.13;;;23.30;66.20;;;;;;5092050;27;44681;-71
2023/07/23 12:11:43;;;;;;;2.30;2.20;;;23.30;66.40;;;;;;5090023;27;43454;-71
2023/07/23 12:14:17;;;;;;;2.20;2.10;;;23.30;66.50;;;;;;5111694;27;43407;-72
2023/07/23 12:16:46;;;;;;;4.10;2.40;;;23.20;65.50;;;;;;5107982;27;43612;-71
2023/07/23 12:19:16;;;;;;;6.03;2.33;;;23.20;65.10;;;;;;5111751;27;43981;-71
2023/07/23 12:21:45;;;;;;;10.23;2.80;;;23.20;66.10;;;;;;5112857;27;43509;-71
2023/07/23 12:24:14;;;;;;;17.77;3.50;;;23.20;66.40;;;;;;5111710;27;43478;-71
2023/07/23 12:26:44;;;;;;;21.47;3.87;;;23.10;65.80;;;;;;5092650;27;45708;-71
2023/07/23 12:29:12;;;;;;;25.57;3.73;;;23.10;65.10;;;;;;5106239;27;43471;-70
2023/07/23 12:31:41;;;;;;;11.73;3.17;;;23.10;66.10;;;;;;5108836;27;43464;-71
2023/07/23 12:34:09;;;;;;;20.43;3.63;;;23.10;66.50;;;;;;5095935;27;44715;-71
2023/07/23 12:36:37;;;;;;;16.17;3.33;;;23.10;65.50;;;;;;5103546;27;43696;-71
2023/07/23 12:39:05;;;;;;;10.53;3.07;;;23.00;65.00;;;;;;5102472;27;43575;-71
2023/07/23 12:41:33;;;;;;;6.93;2.90;;;23.10;65.20;;;;;;5103611;27;43751;-71
2023/07/23 12:44:03;;;;;;;8.30;3.23;;;23.00;65.50;;;;;;5107942;27;43973;-71
2023/07/23 12:46:31;;;;;;;11.20;3.27;;;23.00;65.40;;;;;;5089418;27;45721;-70
2023/07/23 12:48:59;;;;;;;11.93;3.03;;;23.00;65.80;;;;;;5084948;27;44870;-71
2023/07/23 12:51:27;;;;;;;7.40;3.10;;;23.10;65.60;;;;;;5102932;27;43502;-71